Time;durP1;ratioP1;P1;durP2;ratioP2;P2;SDS_P1;SDS_P2;PMS_P1;PMS_P2;Temp;Humidity;BMP_temperature;BMP_pressure;BME280_temperature;BME280_humidity;BME280_pressure;Samples;Min_cycle;Max_cycle;Signal;HPM_P1;HPM_P2
2022/12/23 00:02:20;;;;;;;8.38;4.78;;;;;;;;;;4979805;28;20291;-86
2022/12/23 00:04:45;;;;;;;7.68;4.57;;;;;;;;;;4978420;28;20035;-85
2022/12/23 00:07:10;;;;;;;8.23;4.93;;;;;;;;;;4980270;28;20122;-86
2022/12/23 00:09:36;;;;;;;7.07;4.68;;;;;;;;;;4980224;28;20296;-86
2022/12/23 00:17:29;;;;;;;8.13;4.70;;;;;;;;;;4983132;28;20098;-85
2022/12/23 00:19:54;;;;;;;7.10;4.72;;;;;;;;;;4982749;28;20420;-87
2022/12/23 00:23:03;;;;;;;7.00;4.70;;;;;;;;;;4981165;28;20031;-86
2022/12/23 00:25:04;;;;;;;7.47;4.20;;;;;;;;;;4984175;28;20088;-86
2022/12/23 00:27:33;;;;;;;7.57;4.20;;;;;;;;;;4986824;28;20022;-85
2022/12/23 00:29:58;;;;;;;6.07;4.10;;;;;;;;;;4984009;28;20492;-83
2022/12/23 00:32:23;;;;;;;6.03;3.70;;;;;;;;;;4983539;28;20030;-86
2022/12/23 00:34:48;;;;;;;5.60;3.43;;;;;;;;;;4985201;28;20400;-85
2022/12/23 00:37:13;;;;;;;6.23;3.77;;;;;;;;;;4985906;28;20599;-85
2022/12/23 00:45:15;;;;;;;5.95;3.50;;;;;;;;;;4985110;28;20042;-85
2022/12/23 00:50:29;;;;;;;5.65;3.63;;;;;;;;;;4984970;28;20057;-85
2022/12/23 00:52:55;;;;;;;7.05;3.47;;;;;;;;;;4982305;28;20468;-86
2022/12/23 00:55:21;;;;;;;5.50;3.50;;;;;;;;;;4983144;28;20073;-87
2022/12/23 00:57:46;;;;;;;4.78;3.28;;;;;;;;;;4984252;28;20033;-84
2022/12/23 01:00:12;;;;;;;5.75;3.40;;;;;;;;;;4983993;28;20035;-86
2022/12/23 01:05:37;;;;;;;3.97;2.80;;;;;;;;;;4984075;28;20042;-86
2022/12/23 01:08:09;;;;;;;5.00;2.88;;;;;;;;;;4982183;28;20034;-85
2022/12/23 01:10:39;;;;;;;4.20;2.90;;;;;;;;;;4982509;28;20030;-85
2022/12/23 01:13:05;;;;;;;4.97;3.00;;;;;;;;;;4983775;28;20075;-85
2022/12/23 01:15:30;;;;;;;3.95;2.80;;;;;;;;;;4983371;28;20027;-86
2022/12/23 01:17:55;;;;;;;6.22;2.85;;;;;;;;;;4983803;28;20388;-84
2022/12/23 01:20:21;;;;;;;5.28;3.10;;;;;;;;;;4983002;28;20031;-86
2022/12/23 01:22:47;;;;;;;4.30;2.92;;;;;;;;;;4983595;28;20106;-85
2022/12/23 01:25:12;;;;;;;4.40;2.63;;;;;;;;;;4983629;28;20029;-85
2022/12/23 01:27:38;;;;;;;4.00;2.92;;;;;;;;;;4983677;28;20031;-86
2022/12/23 01:30:04;;;;;;;4.30;2.85;;;;;;;;;;4983537;28;20034;-85
2022/12/23 01:32:29;;;;;;;6.10;2.97;;;;;;;;;;4983742;28;20389;-86
2022/12/23 01:34:54;;;;;;;5.80;3.00;;;;;;;;;;4983040;28;20027;-85
2022/12/23 01:37:19;;;;;;;5.43;3.03;;;;;;;;;;4983449;28;20269;-85
2022/12/23 01:39:45;;;;;;;5.25;3.00;;;;;;;;;;4983521;28;20256;-86
2022/12/23 01:45:01;;;;;;;5.03;2.65;;;;;;;;;;4983309;28;20095;-85
2022/12/23 01:47:49;;;;;;;4.45;2.95;;;;;;;;;;4980806;28;20023;-85
2022/12/23 01:50:47;;;;;;;4.70;2.75;;;;;;;;;;4981575;28;20041;-87
2022/12/23 01:53:18;;;;;;;4.20;2.63;;;;;;;;;;4981855;28;20026;-85
2022/12/23 01:55:55;;;;;;;6.75;2.72;;;;;;;;;;4982058;28;20105;-85
2022/12/23 01:58:27;;;;;;;3.60;2.40;;;;;;;;;;4982555;28;20027;-86
2022/12/23 02:03:42;;;;;;;4.00;2.53;;;;;;;;;;4981804;28;20078;-85
2022/12/23 02:12:02;;;;;;;3.92;2.30;;;;;;;;;;4983880;28;20033;-86
2022/12/23 02:18:01;;;;;;;4.60;2.53;;;;;;;;;;4982576;28;20053;-86
2022/12/23 02:20:51;;;;;;;3.40;1.90;;;;;;;;;;4981248;28;20539;-84
2022/12/23 02:23:38;;;;;;;4.05;2.20;;;;;;;;;;4981862;28;20034;-84
2022/12/23 02:26:40;;;;;;;3.38;2.28;;;;;;;;;;4982378;28;20536;-84
2022/12/23 02:29:31;;;;;;;4.75;2.40;;;;;;;;;;4982228;28;20031;-85
2022/12/23 02:32:08;;;;;;;4.35;2.05;;;;;;;;;;4946529;28;20045;-84
2022/12/23 02:34:53;;;;;;;3.08;1.95;;;;;;;;;;4981786;28;20089;-84
2022/12/23 02:37:38;;;;;;;;;;;;;;;;;;4981660;28;20042;-85
2022/12/23 02:40:28;;;;;;;4.22;2.20;;;;;;;;;;4981866;28;20351;-83
2022/12/23 02:43:12;;;;;;;4.20;2.10;;;;;;;;;;4980573;28;20085;-84
2022/12/23 02:46:03;;;;;;;2.70;1.93;;;;;;;;;;4981612;28;20091;-85
2022/12/23 02:48:58;;;;;;;3.50;1.75;;;;;;;;;;4980694;28;20292;-84
2022/12/23 02:51:28;;;;;;;3.22;2.00;;;;;;;;;;4980570;28;20120;-84
2022/12/23 02:53:58;;;;;;;3.15;1.67;;;;;;;;;;4980239;28;20027;-85
2022/12/23 02:56:27;;;;;;;5.53;1.80;;;;;;;;;;4981539;28;20500;-84
2022/12/23 02:58:57;;;;;;;4.50;2.10;;;;;;;;;;4981149;28;20085;-85
2022/12/23 03:01:24;;;;;;;4.00;1.60;;;;;;;;;;4980329;28;20370;-84
2022/12/23 03:03:50;;;;;;;4.07;1.50;;;;;;;;;;4981132;28;20066;-84
2022/12/23 03:06:24;;;;;;;2.90;1.90;;;;;;;;;;4981373;28;20114;-84
2022/12/23 03:08:52;;;;;;;3.42;1.77;;;;;;;;;;4981892;28;20031;-85
2022/12/23 03:11:18;;;;;;;2.85;1.50;;;;;;;;;;4979981;28;20435;-85
2022/12/23 03:14:08;;;;;;;4.53;1.30;;;;;;;;;;4980583;28;20033;-84
2022/12/23 03:16:51;;;;;;;6.68;1.73;;;;;;;;;;4981920;28;20046;-84
2022/12/23 03:19:28;;;;;;;3.53;1.70;;;;;;;;;;4981762;28;20491;-84
2022/12/23 03:22:09;;;;;;;3.65;1.50;;;;;;;;;;4980093;28;20129;-86
2022/12/23 03:24:49;;;;;;;3.08;1.50;;;;;;;;;;4981672;28;20484;-83
2022/12/23 03:27:21;;;;;;;4.28;1.58;;;;;;;;;;4981562;28;20034;-85
2022/12/23 03:30:14;;;;;;;5.07;1.70;;;;;;;;;;4979478;28;20062;-83
2022/12/23 03:32:52;;;;;;;6.05;1.70;;;;;;;;;;4979638;28;20137;-85
2022/12/23 03:35:24;;;;;;;8.68;1.90;;;;;;;;;;4979904;28;20023;-84
2022/12/23 03:37:53;;;;;;;8.52;1.90;;;;;;;;;;4980584;28;20113;-84
2022/12/23 03:40:34;;;;;;;5.03;2.08;;;;;;;;;;4978922;28;20033;-84
2022/12/23 03:43:04;;;;;;;5.10;1.75;;;;;;;;;;4979832;28;20035;-85
2022/12/23 03:45:41;;;;;;;3.72;1.50;;;;;;;;;;4980274;28;20031;-86
2022/12/23 03:48:22;;;;;;;5.22;1.80;;;;;;;;;;4979698;28;20031;-83
2022/12/23 03:50:52;;;;;;;4.45;1.80;;;;;;;;;;4978915;28;20023;-83
2022/12/23 03:53:24;;;;;;;3.50;1.60;;;;;;;;;;4979926;28;20027;-84
2022/12/23 03:55:58;;;;;;;3.80;1.70;;;;;;;;;;4978285;28;20118;-83
2022/12/23 03:58:27;;;;;;;;;;;;;;;;;;4979533;28;20035;-85
2022/12/23 04:01:04;;;;;;;3.00;1.38;;;;;;;;;;4978242;28;20299;-84
2022/12/23 04:03:53;;;;;;;2.58;1.48;;;;;;;;;;4980131;28;20102;-85
2022/12/23 04:06:19;;;;;;;3.78;1.55;;;;;;;;;;4979600;28;20035;-84
2022/12/23 04:08:46;;;;;;;4.32;1.80;;;;;;;;;;4978851;28;20031;-84
2022/12/23 04:11:12;;;;;;;3.28;1.75;;;;;;;;;;4980346;28;20034;-85
2022/12/23 04:13:40;;;;;;;6.30;1.60;;;;;;;;;;4978402;28;20027;-83
2022/12/23 04:16:06;;;;;;;2.22;1.48;;;;;;;;;;4979103;28;20531;-85
2022/12/23 04:18:31;;;;;;;3.00;1.48;;;;;;;;;;4979241;28;20138;-84
2022/12/23 04:20:57;;;;;;;3.45;2.00;;;;;;;;;;4980202;28;20392;-84
2022/12/23 04:23:22;;;;;;;3.17;1.70;;;;;;;;;;4978162;28;20026;-84
2022/12/23 04:25:47;;;;;;;1.67;1.30;;;;;;;;;;4980118;28;20105;-83
2022/12/23 04:28:13;;;;;;;3.75;1.60;;;;;;;;;;4979366;28;20452;-84
2022/12/23 04:30:38;;;;;;;3.45;1.50;;;;;;;;;;4979214;28;20027;-84
2022/12/23 04:33:03;;;;;;;3.83;1.15;;;;;;;;;;4978677;28;20109;-85
2022/12/23 04:35:29;;;;;;;3.03;1.20;;;;;;;;;;4979595;28;20038;-85
2022/12/23 04:37:54;;;;;;;5.05;1.00;;;;;;;;;;4979813;28;20253;-84
2022/12/23 04:40:20;;;;;;;4.10;1.30;;;;;;;;;;4980054;28;20062;-84
2022/12/23 04:42:45;;;;;;;2.00;1.20;;;;;;;;;;4980563;28;20031;-84
2022/12/23 04:45:10;;;;;;;2.03;0.97;;;;;;;;;;4980825;28;20500;-84
2022/12/23 04:47:35;;;;;;;1.55;1.00;;;;;;;;;;4980467;28;20265;-85
2022/12/23 04:50:00;;;;;;;1.17;1.03;;;;;;;;;;4980514;28;20026;-85
2022/12/23 04:52:26;;;;;;;1.60;1.00;;;;;;;;;;4978774;28;20257;-83
2022/12/23 04:54:51;;;;;;;3.53;1.10;;;;;;;;;;4977267;28;20033;-84
2022/12/23 04:57:16;;;;;;;1.65;1.08;;;;;;;;;;4977117;28;20033;-84
2022/12/23 04:59:42;;;;;;;1.13;0.85;;;;;;;;;;4977342;28;20023;-85
2022/12/23 05:02:07;;;;;;;2.28;0.90;;;;;;;;;;4978413;28;20112;-84
2022/12/23 05:04:32;;;;;;;2.47;1.10;;;;;;;;;;4977175;28;20046;-83
2022/12/23 05:06:58;;;;;;;2.58;1.30;;;;;;;;;;4977584;28;20061;-84
2022/12/23 05:09:23;;;;;;;2.40;1.00;;;;;;;;;;4977445;28;20027;-84
2022/12/23 05:11:49;;;;;;;3.53;1.95;;;;;;;;;;4982234;28;20439;-84
2022/12/23 05:14:14;;;;;;;1.33;1.00;;;;;;;;;;4981471;28;20468;-82
2022/12/23 05:16:39;;;;;;;3.03;0.93;;;;;;;;;;4982391;28;20452;-83
2022/12/23 05:19:04;;;;;;;0.98;0.63;;;;;;;;;;4981949;28;20778;-85
2022/12/23 05:21:29;;;;;;;3.13;1.00;;;;;;;;;;4982225;28;20041;-83
2022/12/23 05:23:55;;;;;;;1.23;0.90;;;;;;;;;;4981860;28;20035;-83
2022/12/23 05:26:20;;;;;;;1.55;0.90;;;;;;;;;;4981536;28;20356;-84
2022/12/23 05:28:46;;;;;;;3.08;1.20;;;;;;;;;;4982306;28;20026;-84
2022/12/23 05:31:12;;;;;;;5.60;1.30;;;;;;;;;;4982030;28;20033;-83
2022/12/23 05:33:37;;;;;;;8.38;2.17;;;;;;;;;;4982497;28;20053;-84
2022/12/23 05:36:03;;;;;;;11.20;2.97;;;;;;;;;;4982382;28;20027;-84
2022/12/23 05:38:29;;;;;;;8.32;2.47;;;;;;;;;;4981229;28;20377;-84
2022/12/23 05:40:54;;;;;;;4.82;1.85;;;;;;;;;;4980691;28;20019;-84
2022/12/23 05:43:19;;;;;;;6.30;2.07;;;;;;;;;;4978972;28;20117;-84
2022/12/23 05:45:45;;;;;;;3.42;1.50;;;;;;;;;;4980058;28;20347;-85
2022/12/23 05:48:10;;;;;;;3.92;1.30;;;;;;;;;;4981691;28;20049;-85
2022/12/23 05:50:38;;;;;;;2.35;0.90;;;;;;;;;;4980599;28;20027;-84
2022/12/23 05:53:04;;;;;;;4.47;0.90;;;;;;;;;;4982182;28;20099;-84
2022/12/23 05:55:29;;;;;;;0.95;0.50;;;;;;;;;;4981839;28;20031;-83
2022/12/23 05:57:54;;;;;;;0.93;0.50;;;;;;;;;;4980161;28;20023;-85
2022/12/23 06:00:20;;;;;;;4.10;0.60;;;;;;;;;;4981684;28;20023;-84
2022/12/23 06:02:45;;;;;;;1.95;0.60;;;;;;;;;;4979508;28;20284;-83
2022/12/23 06:05:11;;;;;;;0.47;0.43;;;;;;;;;;4981016;28;20113;-85
2022/12/23 06:07:38;;;;;;;1.27;0.40;;;;;;;;;;4980278;28;20043;-85
2022/12/23 06:10:07;;;;;;;1.48;0.50;;;;;;;;;;4979500;28;20436;-83
2022/12/23 06:12:33;;;;;;;2.03;0.60;;;;;;;;;;4979176;28;20027;-84
2022/12/23 06:14:58;;;;;;;1.33;0.30;;;;;;;;;;4978812;28;20086;-83
2022/12/23 06:17:23;;;;;;;0.40;0.37;;;;;;;;;;4979598;28;20030;-84
2022/12/23 06:19:49;;;;;;;0.60;0.30;;;;;;;;;;4979523;28;20257;-83
2022/12/23 06:22:14;;;;;;;1.38;0.40;;;;;;;;;;4978511;28;20078;-83
2022/12/23 06:24:40;;;;;;;0.55;0.32;;;;;;;;;;4977617;28;20030;-85
2022/12/23 06:27:05;;;;;;;0.73;0.30;;;;;;;;;;4978810;28;20389;-84
2022/12/23 06:29:30;;;;;;;0.30;0.30;;;;;;;;;;4980601;28;20082;-84
2022/12/23 06:31:55;;;;;;;0.50;0.33;;;;;;;;;;4980289;28;20083;-85
2022/12/23 06:34:21;;;;;;;0.40;0.32;;;;;;;;;;4979891;28;20253;-85
2022/12/23 06:36:46;;;;;;;1.08;0.50;;;;;;;;;;4981389;28;20536;-84
2022/12/23 06:39:12;;;;;;;1.95;0.50;;;;;;;;;;4980543;28;20026;-84
2022/12/23 06:41:37;;;;;;;1.08;0.40;;;;;;;;;;4980593;28;20369;-85
2022/12/23 06:44:02;;;;;;;0.50;0.30;;;;;;;;;;4980426;28;20041;-83
2022/12/23 06:46:28;;;;;;;0.28;0.28;;;;;;;;;;4980415;28;20026;-84
2022/12/23 06:48:53;;;;;;;0.20;0.20;;;;;;;;;;4978999;28;20023;-83
2022/12/23 06:51:18;;;;;;;0.10;0.10;;;;;;;;;;4978726;28;20352;-84
2022/12/23 06:53:44;;;;;;;1.55;0.47;;;;;;;;;;4978782;28;20058;-84
2022/12/23 06:56:09;;;;;;;1.00;0.30;;;;;;;;;;4979224;28;20487;-84
2022/12/23 06:58:34;;;;;;;0.43;0.40;;;;;;;;;;4977120;28;20030;-83
2022/12/23 07:00:59;;;;;;;0.73;0.40;;;;;;;;;;4978486;28;20061;-85
2022/12/23 07:03:25;;;;;;;0.57;0.30;;;;;;;;;;4977587;28;20039;-84
2022/12/23 07:05:51;;;;;;;0.80;0.43;;;;;;;;;;4979964;28;20058;-83
2022/12/23 07:08:17;;;;;;;0.70;0.50;;;;;;;;;;4977017;28;20166;-85
2022/12/23 07:10:42;;;;;;;2.72;0.47;;;;;;;;;;4977888;28;20461;-84
2022/12/23 07:13:07;;;;;;;1.88;0.60;;;;;;;;;;4978104;28;20019;-85
2022/12/23 07:15:32;;;;;;;0.57;0.47;;;;;;;;;;4977341;28;20022;-85
2022/12/23 07:17:58;;;;;;;1.70;0.43;;;;;;;;;;4978570;28;20042;-84
2022/12/23 07:20:23;;;;;;;0.40;0.40;;;;;;;;;;4979429;28;20275;-85
2022/12/23 07:22:49;;;;;;;3.65;0.40;;;;;;;;;;4979944;28;20061;-86
2022/12/23 07:25:15;;;;;;;2.65;0.93;;;;;;;;;;4978582;28;20034;-85
2022/12/23 07:27:41;;;;;;;0.82;0.63;;;;;;;;;;4977627;28;20027;-84
2022/12/23 07:30:07;;;;;;;0.40;0.40;;;;;;;;;;4977471;28;20449;-84
2022/12/23 07:32:32;;;;;;;0.80;0.35;;;;;;;;;;4978707;28;20027;-85
2022/12/23 07:34:57;;;;;;;2.00;1.05;;;;;;;;;;4979580;28;20053;-86
2022/12/23 07:37:22;;;;;;;1.17;0.80;;;;;;;;;;4977977;28;20050;-85
2022/12/23 07:39:48;;;;;;;0.73;0.70;;;;;;;;;;4979037;28;20030;-85
2022/12/23 07:42:13;;;;;;;2.03;0.90;;;;;;;;;;4978048;28;20300;-85
2022/12/23 07:44:38;;;;;;;1.23;0.80;;;;;;;;;;4975831;28;20260;-86
2022/12/23 07:47:03;;;;;;;2.27;0.70;;;;;;;;;;4977237;28;20038;-85
2022/12/23 07:49:28;;;;;;;3.05;0.90;;;;;;;;;;4978945;28;20344;-86
2022/12/23 07:51:54;;;;;;;3.75;0.90;;;;;;;;;;4978813;28;20388;-85
2022/12/23 07:54:21;;;;;;;1.23;0.80;;;;;;;;;;4980245;28;20034;-85
2022/12/23 07:56:46;;;;;;;2.60;1.10;;;;;;;;;;4980055;28;20263;-85
2022/12/23 07:59:12;;;;;;;5.13;1.67;;;;;;;;;;4981540;28;20038;-86
2022/12/23 08:01:37;;;;;;;3.10;1.70;;;;;;;;;;4980117;28;20283;-85
2022/12/23 08:04:02;;;;;;;4.10;1.40;;;;;;;;;;4979093;28;20117;-86
2022/12/23 08:06:28;;;;;;;4.13;1.40;;;;;;;;;;4979957;28;20489;-85
2022/12/23 08:08:53;;;;;;;4.82;1.73;;;;;;;;;;4980387;28;20023;-86
2022/12/23 08:11:18;;;;;;;6.40;2.23;;;;;;;;;;4980368;28;20031;-85
2022/12/23 08:13:44;;;;;;;5.05;2.00;;;;;;;;;;4980314;28;20430;-85
2022/12/23 08:16:25;;;;;;;3.35;2.10;;;;;;;;;;4980444;28;20034;-86
2022/12/23 08:18:53;;;;;;;4.07;1.90;;;;;;;;;;4978805;28;20547;-85
2022/12/23 08:21:18;;;;;;;2.90;1.40;;;;;;;;;;4981251;28;20033;-85
2022/12/23 08:23:46;;;;;;;5.70;1.90;;;;;;;;;;4981863;28;20110;-86
2022/12/23 08:26:20;;;;;;;3.20;2.20;;;;;;;;;;4979507;28;20031;-86
2022/12/23 08:28:46;;;;;;;4.30;2.08;;;;;;;;;;4979922;28;20113;-86
2022/12/23 08:31:15;;;;;;;4.93;1.95;;;;;;;;;;4979444;28;20027;-85
2022/12/23 08:33:42;;;;;;;6.47;2.58;;;;;;;;;;4979032;28;20082;-84
2022/12/23 08:36:11;;;;;;;6.32;2.55;;;;;;;;;;4977403;28;20039;-86
2022/12/23 08:38:36;;;;;;;5.68;2.25;;;;;;;;;;4977568;28;20031;-85
2022/12/23 08:41:01;;;;;;;2.65;1.50;;;;;;;;;;4976593;28;20022;-85
2022/12/23 08:43:27;;;;;;;1.67;1.38;;;;;;;;;;4976408;28;20041;-85
2022/12/23 08:45:52;;;;;;;2.80;1.60;;;;;;;;;;4978313;28;20491;-84
2022/12/23 08:48:17;;;;;;;1.05;0.80;;;;;;;;;;4978772;28;20030;-85
2022/12/23 08:50:44;;;;;;;1.85;1.00;;;;;;;;;;4980108;28;20099;-85
2022/12/23 08:53:11;;;;;;;2.65;1.42;;;;;;;;;;4979856;28;20050;-86
2022/12/23 08:55:44;;;;;;;1.48;0.75;;;;;;;;;;4979731;28;20026;-86
2022/12/23 08:58:10;;;;;;;2.78;0.80;;;;;;;;;;4979030;28;20042;-84
2022/12/23 09:00:38;;;;;;;0.75;0.57;;;;;;;;;;4978741;28;20061;-84
2022/12/23 09:03:06;;;;;;;0.55;0.52;;;;;;;;;;4977443;28;20077;-86
2022/12/23 09:05:32;;;;;;;1.88;0.60;;;;;;;;;;4979315;28;20113;-85
2022/12/23 09:07:58;;;;;;;0.47;0.40;;;;;;;;;;4979664;28;20034;-86
2022/12/23 09:10:23;;;;;;;0.50;0.50;;;;;;;;;;4978216;28;20129;-84
2022/12/23 09:12:49;;;;;;;0.73;0.43;;;;;;;;;;4979845;28;20488;-84
2022/12/23 09:15:17;;;;;;;1.40;0.60;;;;;;;;;;4980031;28;20050;-84
2022/12/23 09:17:43;;;;;;;0.65;0.50;;;;;;;;;;4980576;28;20030;-85
2022/12/23 09:20:09;;;;;;;3.10;0.60;;;;;;;;;;4979331;28;20380;-86
2022/12/23 09:22:34;;;;;;;1.65;0.68;;;;;;;;;;4978148;28;20094;-86
2022/12/23 09:25:00;;;;;;;0.57;0.50;;;;;;;;;;4978728;28;20026;-84
2022/12/23 09:27:25;;;;;;;0.52;0.45;;;;;;;;;;4982546;28;20035;-84
2022/12/23 09:29:50;;;;;;;0.70;0.40;;;;;;;;;;4982418;28;20388;-84
2022/12/23 09:32:16;;;;;;;1.77;0.45;;;;;;;;;;4982472;28;20026;-85
2022/12/23 09:34:41;;;;;;;0.95;0.60;;;;;;;;;;4982432;28;20125;-85
2022/12/23 09:37:06;;;;;;;0.70;0.50;;;;;;;;;;4982311;28;20034;-85
2022/12/23 09:39:31;;;;;;;0.57;0.50;;;;;;;;;;4983880;28;20033;-86
2022/12/23 09:42:23;;;;;;;1.08;0.70;;;;;;;;;;4983113;28;20015;-85
2022/12/23 09:45:15;;;;;;;0.77;0.50;;;;;;;;;;4982841;28;20068;-85
2022/12/23 09:47:42;;;;;;;1.02;0.47;;;;;;;;;;4982008;28;20027;-87
2022/12/23 09:50:28;;;;;;;0.80;0.50;;;;;;;;;;4982779;28;20116;-84
2022/12/23 09:52:58;;;;;;;0.40;0.40;;;;;;;;;;4982687;28;20031;-85
2022/12/23 09:55:31;;;;;;;0.50;0.32;;;;;;;;;;4981837;28;20373;-85
2022/12/23 09:58:08;;;;;;;1.25;0.52;;;;;;;;;;4982076;28;20026;-85
2022/12/23 10:00:41;;;;;;;0.70;0.60;;;;;;;;;;4981075;28;20038;-84
2022/12/23 10:03:34;;;;;;;0.77;0.60;;;;;;;;;;4978945;28;20023;-85
2022/12/23 10:06:03;;;;;;;0.70;0.50;;;;;;;;;;4980545;28;20057;-85
2022/12/23 10:08:53;;;;;;;2.15;0.60;;;;;;;;;;4980348;28;20027;-84
2022/12/23 10:11:22;;;;;;;0.85;0.55;;;;;;;;;;4980902;28;20043;-85
2022/12/23 10:13:53;;;;;;;0.57;0.40;;;;;;;;;;4983353;28;20034;-88
2022/12/23 10:16:22;;;;;;;0.57;0.50;;;;;;;;;;4981354;28;20030;-85
2022/12/23 10:18:59;;;;;;;0.65;0.50;;;;;;;;;;4982812;28;20456;-86
2022/12/23 10:21:33;;;;;;;1.58;0.60;;;;;;;;;;4982868;28;20033;-85
2022/12/23 10:24:09;;;;;;;0.60;0.55;;;;;;;;;;4983999;28;20023;-85
2022/12/23 10:26:47;;;;;;;0.90;0.63;;;;;;;;;;4982005;28;20031;-85
2022/12/23 10:29:24;;;;;;;0.80;0.70;;;;;;;;;;4981452;28;20054;-85
2022/12/23 10:32:24;;;;;;;0.82;0.60;;;;;;;;;;4983456;28;20058;-85
2022/12/23 10:34:57;;;;;;;1.13;0.70;;;;;;;;;;4983542;28;20019;-86
2022/12/23 10:37:47;;;;;;;0.85;0.70;;;;;;;;;;4982246;28;20087;-86
2022/12/23 10:44:02;;;;;;;0.98;0.68;;;;;;;;;;4986113;28;20045;-84
2022/12/23 10:47:03;;;;;;;1.00;0.60;;;;;;;;;;4986326;28;20054;-84
2022/12/23 10:49:53;;;;;;;1.55;0.73;;;;;;;;;;4986052;28;20114;-83
2022/12/23 10:52:44;;;;;;;0.85;0.63;;;;;;;;;;4985537;28;20058;-84
2022/12/23 10:55:24;;;;;;;1.17;0.80;;;;;;;;;;4984886;28;20057;-86
2022/12/23 10:57:51;;;;;;;0.80;0.60;;;;;;;;;;4985447;28;20027;-87
2022/12/23 11:00:20;;;;;;;0.63;0.47;;;;;;;;;;4986767;28;20026;-83
2022/12/23 11:03:09;;;;;;;0.77;0.52;;;;;;;;;;4984676;28;20065;-84
2022/12/23 11:05:35;;;;;;;1.20;0.70;;;;;;;;;;4983723;28;20027;-85
2022/12/23 11:08:03;;;;;;;0.88;0.60;;;;;;;;;;4983913;28;20038;-85
2022/12/23 11:10:33;;;;;;;0.70;0.60;;;;;;;;;;4985358;28;20076;-85
2022/12/23 11:12:59;;;;;;;2.15;0.90;;;;;;;;;;4986107;28;20019;-83
2022/12/23 11:15:24;;;;;;;1.27;0.80;;;;;;;;;;4984711;28;20039;-84
2022/12/23 11:18:14;;;;;;;1.70;1.00;;;;;;;;;;4986367;28;20026;-85
2022/12/23 11:20:41;;;;;;;2.20;1.30;;;;;;;;;;4985663;28;20033;-83
2022/12/23 11:23:25;;;;;;;0.77;0.70;;;;;;;;;;4985541;28;20019;-85
2022/12/23 11:26:00;;;;;;;;;;;;;;;;;;4985793;28;20022;-87
2022/12/23 11:28:35;;;;;;;0.57;0.52;;;;;;;;;;4984988;28;19920;-84
2022/12/23 11:31:10;;;;;;;2.35;0.80;;;;;;;;;;4983370;28;20022;-85
2022/12/23 11:33:50;;;;;;;1.25;0.80;;;;;;;;;;4986100;28;20029;-84
2022/12/23 11:36:53;;;;;;;2.85;1.10;;;;;;;;;;4984287;28;20376;-85
2022/12/23 11:39:26;;;;;;;1.52;0.90;;;;;;;;;;4981428;28;20077;-84
2022/12/23 11:42:00;;;;;;;1.50;0.90;;;;;;;;;;4983274;28;20057;-84
2022/12/23 11:44:31;;;;;;;1.17;0.90;;;;;;;;;;4983877;28;20086;-84
2022/12/23 11:46:56;;;;;;;0.77;0.60;;;;;;;;;;4980977;28;20029;-85
2022/12/23 11:49:29;;;;;;;1.23;0.80;;;;;;;;;;4982993;28;20027;-82
2022/12/23 11:52:35;;;;;;;1.20;0.90;;;;;;;;;;4982388;28;20030;-85
2022/12/23 11:55:05;;;;;;;0.70;0.70;;;;;;;;;;4986096;28;20033;-84
2022/12/23 11:57:48;;;;;;;1.15;0.95;;;;;;;;;;4981686;28;20057;-85
2022/12/23 12:00:24;;;;;;;1.05;0.77;;;;;;;;;;4982750;28;20093;-84
2022/12/23 12:02:51;;;;;;;1.85;0.90;;;;;;;;;;4983122;28;20027;-84
2022/12/23 12:05:21;;;;;;;1.25;0.82;;;;;;;;;;4984357;28;20035;-84
2022/12/23 12:07:47;;;;;;;1.10;0.90;;;;;;;;;;4983537;28;20026;-84
2022/12/23 12:10:31;;;;;;;1.73;0.93;;;;;;;;;;4984476;28;20030;-83
2022/12/23 12:13:01;;;;;;;1.77;0.80;;;;;;;;;;4985601;28;20100;-84
2022/12/23 12:15:47;;;;;;;1.10;0.85;;;;;;;;;;4985323;28;20058;-83
2022/12/23 12:18:18;;;;;;;2.97;0.60;;;;;;;;;;4985678;28;20058;-84
2022/12/23 12:21:12;;;;;;;1.88;0.90;;;;;;;;;;4986641;28;20477;-82
2022/12/23 12:23:57;;;;;;;0.70;0.70;;;;;;;;;;4982372;28;20050;-83
2022/12/23 12:26:27;;;;;;;;;;;;;;;;;;4989210;28;20030;-83
2022/12/23 12:29:14;;;;;;;1.15;0.73;;;;;;;;;;4987397;28;20284;-84
2022/12/23 12:31:53;;;;;;;2.58;0.77;;;;;;;;;;4988585;28;20125;-85
2022/12/23 12:34:56;;;;;;;1.17;0.80;;;;;;;;;;4989425;28;20062;-83
2022/12/23 12:37:59;;;;;;;0.88;0.80;;;;;;;;;;4988818;28;20090;-84
2022/12/23 12:40:58;;;;;;;1.83;0.88;;;;;;;;;;4991004;28;20038;-84
2022/12/23 12:43:30;;;;;;;1.15;0.80;;;;;;;;;;4991846;28;20026;-84
2022/12/23 12:46:05;;;;;;;1.50;0.90;;;;;;;;;;4990456;28;20061;-83
2022/12/23 12:48:45;;;;;;;1.10;0.90;;;;;;;;;;4990435;28;20022;-84
2022/12/23 12:51:28;;;;;;;2.47;1.00;;;;;;;;;;4988740;28;20074;-83
2022/12/23 12:54:32;;;;;;;1.65;1.00;;;;;;;;;;4988049;28;20072;-84
2022/12/23 12:56:58;;;;;;;1.67;1.08;;;;;;;;;;4988290;28;20033;-84
2022/12/23 12:59:32;;;;;;;1.08;0.98;;;;;;;;;;4990245;28;20484;-84
2022/12/23 13:02:24;;;;;;;3.60;0.82;;;;;;;;;;4989634;28;20054;-83
2022/12/23 13:05:43;;;;;;;1.10;0.90;;;;;;;;;;4989431;28;20034;-83
2022/12/23 13:08:39;;;;;;;1.75;0.90;;;;;;;;;;4894882;29;20025;-84
2022/12/23 13:11:19;;;;;;;1.45;0.80;;;;;;;;;;4988833;28;20118;-84
2022/12/23 13:13:56;;;;;;;1.00;0.90;;;;;;;;;;4988878;28;20480;-83
2022/12/23 13:16:49;;;;;;;1.45;1.00;;;;;;;;;;4989389;28;20524;-82
2022/12/23 13:19:28;;;;;;;1.10;0.75;;;;;;;;;;4989279;28;20408;-83
2022/12/23 13:21:58;;;;;;;1.10;0.80;;;;;;;;;;4989717;28;20030;-85
2022/12/23 13:24:51;;;;;;;0.70;0.70;;;;;;;;;;4990081;28;20027;-83
2022/12/23 13:27:23;;;;;;;2.13;1.15;;;;;;;;;;4990068;28;20018;-84
2022/12/23 13:29:59;;;;;;;1.27;0.88;;;;;;;;;;4989933;28;20027;-84
2022/12/23 13:32:55;;;;;;;2.55;0.90;;;;;;;;;;4989208;28;20045;-85
2022/12/23 13:35:42;;;;;;;1.55;0.88;;;;;;;;;;4988599;28;20027;-83
2022/12/23 13:38:35;;;;;;;1.60;1.10;;;;;;;;;;4987013;28;20029;-82
2022/12/23 13:41:34;;;;;;;1.95;0.95;;;;;;;;;;4989109;28;20366;-83
2022/12/23 13:44:04;;;;;;;2.60;0.93;;;;;;;;;;4984637;28;20448;-84
2022/12/23 13:47:17;;;;;;;1.38;0.80;;;;;;;;;;4986795;28;20053;-83
2022/12/23 13:49:58;;;;;;;1.27;0.82;;;;;;;;;;4970096;28;20031;-83
2022/12/23 13:52:54;;;;;;;2.20;1.00;;;;;;;;;;4986187;28;20046;-83
2022/12/23 13:55:40;;;;;;;2.00;1.02;;;;;;;;;;4987035;28;20027;-83
2022/12/23 13:58:13;;;;;;;3.38;0.80;;;;;;;;;;4988522;28;20083;-84
2022/12/23 14:00:39;;;;;;;1.67;0.90;;;;;;;;;;4988724;28;20031;-84
2022/12/23 14:03:19;;;;;;;4.10;1.00;;;;;;;;;;4987046;28;20045;-83
2022/12/23 14:05:49;;;;;;;1.10;0.80;;;;;;;;;;4986238;28;20041;-84
2022/12/23 14:08:17;;;;;;;1.13;0.90;;;;;;;;;;4986557;28;20095;-83
2022/12/23 14:10:57;;;;;;;4.05;0.80;;;;;;;;;;4986790;28;20433;-84
2022/12/23 14:13:27;;;;;;;5.00;0.80;;;;;;;;;;4987037;28;20030;-83
2022/12/23 14:15:58;;;;;;;2.00;1.10;;;;;;;;;;4985780;28;20091;-84
2022/12/23 14:18:32;;;;;;;3.45;1.48;;;;;;;;;;4987582;28;20023;-83
2022/12/23 14:21:31;;;;;;;3.25;1.30;;;;;;;;;;4986485;28;20026;-83
2022/12/23 14:24:14;;;;;;;2.03;1.10;;;;;;;;;;4988914;28;20090;-84
2022/12/23 14:26:49;;;;;;;3.10;1.40;;;;;;;;;;4989681;28;20026;-84
2022/12/23 14:30:00;;;;;;;2.17;1.35;;;;;;;;;;4988713;28;20039;-84
2022/12/23 14:32:28;;;;;;;2.25;1.35;;;;;;;;;;4975643;28;20042;-85
2022/12/23 14:35:21;;;;;;;1.60;1.20;;;;;;;;;;4990231;28;20437;-83
2022/12/23 14:38:09;;;;;;;2.15;1.30;;;;;;;;;;4990657;28;20030;-83
2022/12/23 14:40:37;;;;;;;2.55;1.27;;;;;;;;;;4990522;28;20058;-84
2022/12/23 14:43:21;;;;;;;1.95;1.20;;;;;;;;;;4987486;28;20054;-84
2022/12/23 14:45:54;;;;;;;2.47;1.48;;;;;;;;;;4989026;28;20065;-84
2022/12/23 14:48:32;;;;;;;1.70;1.20;;;;;;;;;;4989475;28;20054;-84
2022/12/23 14:51:12;;;;;;;2.78;1.60;;;;;;;;;;4990482;28;20078;-84
2022/12/23 14:53:49;;;;;;;2.70;1.25;;;;;;;;;;4990189;28;20026;-84
2022/12/23 14:56:18;;;;;;;2.35;1.10;;;;;;;;;;4989574;28;20041;-84
2022/12/23 14:58:49;;;;;;;2.63;1.70;;;;;;;;;;4991232;28;20027;-84
2022/12/23 15:01:18;;;;;;;3.20;1.80;;;;;;;;;;4989005;28;20062;-84
2022/12/23 15:03:47;;;;;;;8.18;3.55;;;;;;;;;;4987309;28;20031;-84
2022/12/23 15:06:30;;;;;;;13.05;5.45;;;;;;;;;;4987996;28;20062;-84
2022/12/23 15:08:57;;;;;;;9.88;4.72;;;;;;;;;;4987805;28;20051;-84
2022/12/23 15:11:28;;;;;;;8.32;4.07;;;;;;;;;;4987104;28;20023;-83
2022/12/23 15:13:56;;;;;;;9.20;4.55;;;;;;;;;;4986624;28;20023;-83
2022/12/23 15:16:35;;;;;;;8.10;4.28;;;;;;;;;;4986681;28;20023;-83
2022/12/23 15:19:15;;;;;;;7.75;4.28;;;;;;;;;;4988949;28;20485;-83
2022/12/23 15:21:40;;;;;;;7.68;4.50;;;;;;;;;;4986217;28;20031;-83
2022/12/23 15:24:13;;;;;;;11.83;4.20;;;;;;;;;;4985455;28;20033;-85
2022/12/23 15:26:38;;;;;;;7.00;4.20;;;;;;;;;;4988727;28;20336;-85
2022/12/23 15:29:06;;;;;;;10.85;4.47;;;;;;;;;;4988602;28;20034;-84
2022/12/23 15:31:36;;;;;;;8.80;4.80;;;;;;;;;;4987238;28;20094;-85
2022/12/23 15:34:07;;;;;;;8.27;4.22;;;;;;;;;;4986328;28;20078;-83
2022/12/23 15:36:34;;;;;;;7.13;3.53;;;;;;;;;;4986858;28;20023;-84
2022/12/23 15:39:06;;;;;;;9.27;4.20;;;;;;;;;;4986865;28;20033;-83
2022/12/23 15:41:31;;;;;;;11.68;6.72;;;;;;;;;;4986794;28;20030;-83
2022/12/23 15:44:00;;;;;;;4.50;2.80;;;;;;;;;;4987170;28;20393;-83
2022/12/23 15:46:26;;;;;;;4.47;2.80;;;;;;;;;;4985975;28;20026;-84
2022/12/23 15:48:51;;;;;;;4.78;3.28;;;;;;;;;;4987011;28;20044;-85
2022/12/23 15:51:30;;;;;;;7.00;3.97;;;;;;;;;;4988161;28;20037;-83